createdAt,value
2018-06-13T00:00:09.938Z,100817.56
2018-06-13T00:02:37.585Z,100816.02
2018-06-13T00:05:05.291Z,100823.63
2018-06-13T00:07:33.314Z,100820.25
2018-06-13T00:10:00.929Z,100821.38
2018-06-13T00:12:28.650Z,100824.12
2018-06-13T00:14:56.555Z,100819.04
2018-06-13T00:17:24.158Z,100824.03
2018-06-13T00:19:51.769Z,100825.44
2018-06-13T00:22:19.572Z,100825.61
2018-06-13T00:24:47.146Z,100828.05
2018-06-13T00:27:14.773Z,100823.35
2018-06-13T00:29:43.070Z,100818.19
2018-06-13T00:32:10.683Z,100815.31
2018-06-13T00:34:38.317Z,100819.84
2018-06-13T00:37:06.184Z,100824.45
2018-06-13T00:39:33.794Z,100823.20
2018-06-13T00:42:01.404Z,100825.19
2018-06-13T00:44:29.389Z,100830.66
2018-06-13T00:46:57.144Z,100823.22
2018-06-13T00:49:24.769Z,100831.73
2018-06-13T00:51:52.818Z,100827.91
2018-06-13T00:54:20.416Z,100831.52
2018-06-13T00:56:48.015Z,100838.70
2018-06-13T00:59:16.025Z,100836.58
2018-06-13T01:01:43.604Z,100833.16
2018-06-13T01:04:11.226Z,100835.89
2018-06-13T01:06:39.428Z,100839.97
2018-06-13T01:09:07.921Z,100840.96
2018-06-13T01:11:35.723Z,100846.35
2018-06-13T01:14:03.604Z,100839.41
2018-06-13T01:16:31.269Z,100840.89
2018-06-13T01:18:58.947Z,100845.33
2018-06-13T01:21:26.868Z,100849.02
2018-06-13T01:23:54.457Z,100847.84
2018-06-13T01:26:22.073Z,100849.33
2018-06-13T01:28:49.877Z,100844.08
2018-06-13T01:31:17.642Z,100852.59
2018-06-13T01:33:45.296Z,100847.43
2018-06-13T01:36:13.225Z,100851.95
2018-06-13T01:38:41.002Z,100857.91
2018-06-13T01:41:08.614Z,100860.72
2018-06-13T01:43:36.423Z,100860.37
2018-06-13T01:46:04.078Z,100862.27
2018-06-13T01:48:31.649Z,100860.67
2018-06-13T01:50:59.450Z,100860.30
2018-06-13T01:53:28.605Z,100862.23
2018-06-13T01:55:56.266Z,100867.84
2018-06-13T01:58:24.558Z,100870.27
2018-06-13T02:00:52.164Z,100869.92
2018-06-13T02:03:19.807Z,100868.28
2018-06-13T02:05:47.661Z,100867.48
2018-06-13T02:08:15.353Z,100873.36
2018-06-13T02:10:42.928Z,100878.33
2018-06-13T02:13:10.914Z,100876.69
2018-06-13T02:15:38.598Z,100878.16
2018-06-13T02:18:06.268Z,100881.34
2018-06-13T02:20:34.312Z,100875.27
2018-06-13T02:23:01.935Z,100877.51
2018-06-13T02:25:29.564Z,100874.47
2018-06-13T02:27:57.410Z,100873.59
2018-06-13T02:30:25.035Z,100876.67
2018-06-13T02:32:53.187Z,100872.27
2018-06-13T02:35:21.266Z,100876.74
2018-06-13T02:37:48.889Z,100884.70
2018-06-13T02:40:16.593Z,100886.03
2018-06-13T02:42:45.061Z,100898.09
2018-06-13T02:45:12.688Z,100905.68
2018-06-13T02:47:40.377Z,100894.33
2018-06-13T02:50:08.363Z,100898.87
2018-06-13T02:52:35.961Z,100899.39
2018-06-13T02:55:03.678Z,100900.72
2018-06-13T02:57:31.638Z,100899.32
2018-06-13T02:59:59.271Z,100900.12
2018-06-13T03:02:26.909Z,100893.80
2018-06-13T03:04:54.820Z,100902.95
2018-06-13T03:07:22.377Z,100904.63
2018-06-13T03:09:49.982Z,100908.47
2018-06-13T03:12:17.930Z,100902.59
2018-06-13T03:14:45.538Z,100910.91
2018-06-13T03:17:13.240Z,100915.20
2018-06-13T03:19:41.106Z,100913.73
2018-06-13T03:22:08.734Z,100909.15
2018-06-13T03:24:36.396Z,100914.55
2018-06-13T03:27:04.247Z,100912.06
2018-06-13T03:29:31.856Z,100923.77
2018-06-13T03:31:59.456Z,100930.19
2018-06-13T03:34:27.698Z,100924.16
2018-06-13T03:36:55.376Z,100920.30
2018-06-13T03:39:23.035Z,100924.83
2018-06-13T03:41:50.812Z,100924.63
2018-06-13T03:44:18.442Z,100918.14
2018-06-13T03:46:46.069Z,100916.97
2018-06-13T03:49:14.070Z,100921.98
2018-06-13T03:51:41.661Z,100930.61
2018-06-13T03:54:09.233Z,100921.53
2018-06-13T03:56:37.292Z,100931.48
2018-06-13T03:59:04.949Z,100930.41
2018-06-13T04:01:32.550Z,100930.18
2018-06-13T04:04:00.533Z,100925.55
2018-06-13T04:06:28.086Z,100922.27
2018-06-13T04:08:55.730Z,100930.09
2018-06-13T04:11:23.869Z,100928.16
2018-06-13T04:13:51.478Z,100871.56
2018-06-13T04:16:19.071Z,100927.27
2018-06-13T04:18:46.846Z,100927.53
2018-06-13T04:21:14.485Z,100930.41
2018-06-13T04:23:42.143Z,100922.19
2018-06-13T04:26:10.091Z,100923.77
2018-06-13T04:28:37.707Z,100916.00
2018-06-13T04:31:05.355Z,100926.41
2018-06-13T04:33:33.281Z,100927.96
2018-06-13T04:36:00.998Z,100929.47
2018-06-13T04:38:28.652Z,100929.69
2018-06-13T04:40:56.427Z,100929.94
2018-06-13T04:43:24.013Z,100932.77
2018-06-13T04:45:51.675Z,100932.98
2018-06-13T04:48:19.970Z,100933.14
2018-06-13T04:50:47.627Z,100935.86
2018-06-13T04:53:15.229Z,100937.27
2018-06-13T04:55:43.121Z,100936.94
2018-06-13T04:58:10.783Z,100941.44
2018-06-13T05:00:38.376Z,100944.27
2018-06-13T05:03:06.315Z,100937.27
2018-06-13T05:05:33.959Z,100903.30
2018-06-13T05:08:01.572Z,100933.92
2018-06-13T05:10:29.398Z,100934.45
2018-06-13T05:12:57.107Z,100933.16
2018-06-13T05:15:24.723Z,100933.10
2018-06-13T05:17:52.818Z,100932.70
2018-06-13T05:20:20.465Z,100936.35
2018-06-13T05:22:48.093Z,100944.38
2018-06-13T05:25:16.042Z,100939.66
2018-06-13T05:27:43.701Z,100944.55
2018-06-13T05:30:11.288Z,100947.64
2018-06-13T05:32:39.057Z,100950.70
2018-06-13T05:35:06.691Z,100948.09
2018-06-13T05:37:34.560Z,100902.55
2018-06-13T05:40:02.520Z,100950.67
2018-06-13T05:42:30.132Z,100956.02
2018-06-13T05:44:57.781Z,100945.34
2018-06-13T05:47:25.791Z,100951.56
2018-06-13T05:49:53.449Z,100950.17
2018-06-13T05:52:21.122Z,100948.28
2018-06-13T05:54:49.154Z,100944.77
2018-06-13T05:57:16.789Z,100947.06
2018-06-13T05:59:44.438Z,100952.91
2018-06-13T06:02:12.348Z,100952.52
2018-06-13T06:04:39.968Z,100952.98
2018-06-13T06:07:07.652Z,100946.42
2018-06-13T06:09:35.616Z,100949.85
2018-06-13T06:12:03.312Z,100957.39
2018-06-13T06:14:30.961Z,100950.32
2018-06-13T06:16:58.928Z,100947.36
2018-06-13T06:19:26.541Z,100951.95
2018-06-13T06:21:54.169Z,100947.23
2018-06-13T06:24:22.219Z,100948.19
2018-06-13T06:26:49.864Z,100948.39
2018-06-13T06:29:17.437Z,100951.73
2018-06-13T06:31:45.445Z,100950.57
2018-06-13T06:34:13.012Z,100947.23
2018-06-13T06:36:40.670Z,100951.87
2018-06-13T06:39:08.694Z,100954.80
2018-06-13T06:41:36.290Z,100964.59
2018-06-13T06:44:03.908Z,100959.91
2018-06-13T06:46:31.813Z,100961.05
2018-06-13T06:48:59.440Z,100959.62
2018-06-13T06:51:27.028Z,100961.72
2018-06-13T06:53:54.920Z,100956.44
2018-06-13T06:56:22.492Z,100962.72
2018-06-13T06:58:50.111Z,100963.30
2018-06-13T07:01:18.078Z,100964.69
2018-06-13T07:03:45.694Z,100966.49
2018-06-13T07:06:13.332Z,100962.06
2018-06-13T07:08:41.367Z,100962.53
2018-06-13T07:11:08.961Z,100962.22
2018-06-13T07:13:36.594Z,100961.91
2018-06-13T07:16:04.758Z,100969.53
2018-06-13T07:18:32.348Z,100960.14
2018-06-13T07:20:59.975Z,100968.48
2018-06-13T07:23:27.743Z,100964.81
2018-06-13T07:25:55.383Z,100965.05
2018-06-13T07:28:23.020Z,100967.35
2018-06-13T07:30:50.921Z,100965.04
2018-06-13T07:33:18.533Z,100967.77
2018-06-13T07:35:46.163Z,100966.71
2018-06-13T07:38:14.135Z,100969.55
2018-06-13T07:40:41.823Z,100973.75
2018-06-13T07:43:09.446Z,100969.98
2018-06-13T07:45:37.342Z,100974.77
2018-06-13T07:48:04.991Z,100977.34
2018-06-13T07:50:32.602Z,100974.55
2018-06-13T07:53:00.598Z,100977.70
2018-06-13T07:55:28.838Z,100972.70
2018-06-13T07:57:56.457Z,100928.26
2018-06-13T08:00:24.454Z,100980.75
2018-06-13T08:02:52.052Z,100978.94
2018-06-13T08:05:19.655Z,100978.94
2018-06-13T08:07:47.518Z,100981.03
2018-06-13T08:10:15.072Z,100975.56
2018-06-13T08:12:42.697Z,100983.00
2018-06-13T08:15:10.526Z,100982.42
2018-06-13T08:17:38.143Z,100982.67
2018-06-13T08:20:05.787Z,100984.19
2018-06-13T08:22:33.826Z,100983.64
2018-06-13T08:25:01.445Z,100978.48
2018-06-13T08:27:29.169Z,100978.88
2018-06-13T08:29:57.175Z,100975.64
2018-06-13T08:32:24.752Z,100973.02
2018-06-13T08:34:52.366Z,100976.59
2018-06-13T08:37:20.190Z,100986.13
2018-06-13T08:39:47.827Z,100979.19
2018-06-13T08:42:15.676Z,100981.18
2018-06-13T08:44:43.689Z,100984.98
2018-06-13T08:47:11.293Z,100983.53
2018-06-13T08:49:38.911Z,100980.73
2018-06-13T08:52:06.805Z,100991.84
2018-06-13T08:54:34.375Z,100987.80
2018-06-13T08:57:01.966Z,100999.30
2018-06-13T08:59:30.025Z,100994.80
2018-06-13T09:01:57.586Z,100993.17
2018-06-13T09:04:25.247Z,100999.89
2018-06-13T09:06:53.238Z,101000.28
2018-06-13T09:09:20.763Z,100994.06
2018-06-13T09:11:48.405Z,101000.64
2018-06-13T09:14:16.466Z,100995.57
2018-06-13T09:16:44.074Z,100993.72
2018-06-13T09:19:11.674Z,100994.11
2018-06-13T09:21:39.824Z,100996.05
2018-06-13T09:24:07.409Z,101006.66
2018-06-13T09:26:35.041Z,101003.45
2018-06-13T09:29:03.116Z,101006.55
2018-06-13T09:31:30.766Z,101017.46
2018-06-13T09:33:58.339Z,101012.65
2018-06-13T09:36:26.209Z,101025.58
2018-06-13T09:38:53.847Z,101018.21
2018-06-13T09:41:21.462Z,101020.47
2018-06-13T09:43:49.369Z,101025.92
2018-06-13T09:46:17.041Z,101032.45
2018-06-13T09:48:44.717Z,101040.84
2018-06-13T09:51:12.599Z,101045.70
2018-06-13T09:53:40.234Z,101060.38
2018-06-13T09:56:07.831Z,101074.66
2018-06-13T09:58:41.101Z,101070.72
2018-06-13T10:01:13.500Z,101074.77
2018-06-13T10:03:41.475Z,101083.52
2018-06-13T10:06:09.072Z,101088.94
2018-06-13T10:08:36.973Z,101068.09
2018-06-13T10:11:04.833Z,101104.56
2018-06-13T10:13:32.435Z,101116.19
2018-06-13T10:16:00.216Z,101116.61
2018-06-13T10:18:28.327Z,101110.28
2018-06-13T10:20:55.920Z,101088.86
2018-06-13T10:23:23.725Z,101056.27
2018-06-13T10:25:51.678Z,101041.14
2018-06-13T10:28:19.348Z,101049.46
2018-06-13T10:30:47.005Z,101046.30
2018-06-13T10:33:14.884Z,101053.81
2018-06-13T10:36:13.465Z,101050.77
2018-06-13T10:38:41.146Z,101051.05
2018-06-13T10:41:08.743Z,101055.74
2018-06-13T10:43:36.542Z,101059.09
2018-06-13T10:46:04.426Z,101063.48
2018-06-13T10:48:32.077Z,101073.63
2018-06-13T10:50:59.784Z,101071.73
2018-06-13T10:53:28.510Z,101076.89
2018-06-13T10:55:56.127Z,101082.52
2018-06-13T10:58:23.938Z,101075.55
2018-06-13T11:00:51.775Z,101077.56
2018-06-13T11:03:19.404Z,101076.88
2018-06-13T11:05:47.260Z,101085.80
2018-06-13T11:08:14.976Z,101091.81
2018-06-13T11:10:42.626Z,101092.22
2018-06-13T11:13:10.487Z,101084.90
2018-06-13T11:15:38.348Z,101080.55
2018-06-13T11:18:06.007Z,101094.64
2018-06-13T11:20:33.921Z,101093.73
2018-06-13T11:23:01.688Z,101095.52
2018-06-13T11:25:29.279Z,101105.64
2018-06-13T11:27:56.940Z,101105.64
2018-06-13T11:30:24.740Z,101115.03
2018-06-13T11:32:52.289Z,101112.84
2018-06-13T11:35:20.195Z,101114.77
2018-06-13T11:37:48.064Z,101124.61
2018-06-13T11:40:15.658Z,101125.59
2018-06-13T11:42:43.555Z,101134.67
2018-06-13T11:45:11.290Z,101141.11
2018-06-13T11:47:39.127Z,101145.80
2018-06-13T11:50:07.083Z,101148.31
2018-06-13T11:52:34.801Z,101158.87
2018-06-13T11:55:02.423Z,101155.52
2018-06-13T11:57:30.517Z,101165.57
2018-06-13T11:59:58.405Z,101161.75
2018-06-13T12:02:25.942Z,101155.25
2018-06-13T12:04:53.836Z,101164.26
2018-06-13T12:07:21.617Z,101160.06
2018-06-13T12:09:49.239Z,101155.20
2018-06-13T12:12:18.028Z,101140.88
2018-06-13T12:14:45.858Z,101128.52
2018-06-13T12:17:13.461Z,101110.27
2018-06-13T12:19:41.321Z,101108.06
2018-06-13T12:22:09.195Z,101119.92
2018-06-13T12:24:36.798Z,101123.38
2018-06-13T12:27:04.747Z,101120.59
2018-06-13T12:29:32.529Z,101114.17
2018-06-13T12:32:00.170Z,101113.00
2018-06-13T12:34:28.087Z,101106.41
2018-06-13T12:36:55.896Z,101111.06
2018-06-13T12:39:23.455Z,101107.81
2018-06-13T12:41:51.192Z,101114.98
2018-06-13T12:44:18.978Z,101114.21
2018-06-13T12:46:46.622Z,101124.63
2018-06-13T12:49:14.666Z,101125.27
2018-06-13T12:51:42.457Z,101126.03
2018-06-13T12:54:10.094Z,101121.65
2018-06-13T12:56:37.909Z,101126.41
2018-06-13T12:59:05.830Z,101125.47
2018-06-13T13:01:33.457Z,101120.58
2018-06-13T13:04:01.352Z,101122.38
2018-06-13T13:06:29.147Z,101119.23
2018-06-13T13:08:56.729Z,101119.60
2018-06-13T13:11:24.537Z,101120.64
2018-06-13T13:13:52.272Z,101119.59
2018-06-13T13:16:19.920Z,101117.55
2018-06-13T13:18:47.692Z,101120.53
2018-06-13T13:21:15.422Z,101112.66
2018-06-13T13:23:43.054Z,101111.51
2018-06-13T13:26:10.819Z,101116.45
2018-06-13T13:28:38.607Z,101113.19
2018-06-13T13:31:06.204Z,101114.58
2018-06-13T13:33:34.093Z,101115.72
2018-06-13T13:36:01.943Z,101108.80
2018-06-13T13:38:29.569Z,101106.67
2018-06-13T13:40:57.483Z,101099.55
2018-06-13T13:43:25.144Z,101104.13
2018-06-13T13:45:52.942Z,101102.47
2018-06-13T13:48:20.627Z,101099.06
2018-06-13T13:50:48.702Z,101097.83
2018-06-13T13:53:16.446Z,101102.52
2018-06-13T13:55:44.219Z,101106.69
2018-06-13T13:58:12.040Z,101099.88
2018-06-13T14:00:39.683Z,101106.88
2018-06-13T14:03:07.446Z,101110.95
2018-06-13T14:05:35.216Z,101112.58
2018-06-13T14:08:02.846Z,101112.63
2018-06-13T14:10:30.693Z,101116.33
2018-06-13T14:12:58.500Z,101113.75
2018-06-13T14:15:26.196Z,101121.25
2018-06-13T14:17:53.976Z,101117.23
2018-06-13T14:20:21.754Z,101092.55
2018-06-13T14:22:49.356Z,101134.03
2018-06-13T14:25:17.058Z,101130.92
2018-06-13T14:27:45.424Z,101135.02
2018-06-13T14:30:13.055Z,101135.56
2018-06-13T14:32:40.316Z,101135.23
2018-06-13T14:35:08.095Z,101140.54
2018-06-13T14:37:35.704Z,101134.26
2018-06-13T14:40:03.621Z,101139.11
2018-06-13T14:42:31.366Z,101144.41
2018-06-13T14:44:58.957Z,101137.00
2018-06-13T14:47:26.811Z,101138.45
2018-06-13T14:49:54.794Z,101141.47
2018-06-13T14:52:22.520Z,101144.63
2018-06-13T14:54:50.200Z,101146.26
2018-06-13T14:57:18.072Z,101142.12
2018-06-13T14:59:45.667Z,101139.80
2018-06-13T15:02:13.503Z,101149.34
2018-06-13T15:04:41.199Z,101150.86
2018-06-13T15:07:08.880Z,101140.61
2018-06-13T15:09:36.748Z,101146.89
2018-06-13T15:12:04.666Z,101141.82
2018-06-13T15:14:32.315Z,101139.55
2018-06-13T15:16:59.502Z,101143.83
2018-06-13T15:19:27.253Z,101145.17
2018-06-13T15:21:54.898Z,101147.50
2018-06-13T15:24:22.724Z,101145.83
2018-06-13T15:26:50.439Z,101152.20
2018-06-13T15:29:18.114Z,101155.56
2018-06-13T15:31:45.912Z,101148.66
2018-06-13T15:34:13.841Z,101154.30
2018-06-13T15:36:41.485Z,101145.94
2018-06-13T15:39:11.508Z,101144.97
2018-06-13T15:41:39.270Z,101148.87
2018-06-13T15:44:07.005Z,101151.31
2018-06-13T15:46:34.663Z,101150.80
2018-06-13T15:49:02.646Z,101150.09
2018-06-13T15:51:30.259Z,101147.23
2018-06-13T15:53:58.227Z,101155.04
2018-06-13T15:56:26.008Z,101151.46
2018-06-13T15:58:53.839Z,101156.33
2018-06-13T16:01:21.650Z,101153.41
2018-06-13T16:03:49.509Z,101150.78
2018-06-13T16:06:17.177Z,101157.29
2018-06-13T16:08:44.949Z,101156.30
2018-06-13T16:11:12.774Z,101154.61
2018-06-13T16:13:40.398Z,101154.31
2018-06-13T16:16:08.291Z,101152.30
2018-06-13T16:18:36.186Z,101150.37
2018-06-13T16:21:03.924Z,101144.87
2018-06-13T16:23:31.752Z,101151.48
2018-06-13T16:25:59.562Z,101160.77
2018-06-13T16:28:27.179Z,101150.08
2018-06-13T16:30:55.040Z,101154.78
2018-06-13T16:33:23.188Z,101152.79
2018-06-13T16:35:50.892Z,101152.78
2018-06-13T16:38:18.670Z,101152.61
2018-06-13T16:40:46.476Z,101156.88
2018-06-13T16:43:14.058Z,101157.98
2018-06-13T16:45:41.826Z,101155.98
2018-06-13T16:48:09.687Z,101152.30
2018-06-13T16:50:45.199Z,101152.64
2018-06-13T16:55:26.406Z,101156.31
2018-06-13T16:57:54.250Z,101148.42
2018-06-13T17:00:22.520Z,101153.30
2018-06-13T17:02:50.717Z,101150.44
2018-06-13T17:05:18.586Z,101157.16
2018-06-13T17:07:46.768Z,101158.56
2018-06-13T17:10:14.442Z,101165.87
2018-06-13T17:12:42.384Z,101161.95
2018-06-13T17:15:10.168Z,101160.95
2018-06-13T17:17:37.804Z,101164.95
2018-06-13T17:20:05.629Z,101168.81
2018-06-13T17:22:33.412Z,101168.56
2018-06-13T17:25:01.053Z,101171.58
2018-06-13T17:27:28.935Z,101174.20
2018-06-13T17:29:56.618Z,101171.38
2018-06-13T17:32:25.000Z,101170.84
2018-06-13T17:34:52.859Z,101174.61
2018-06-13T17:37:20.811Z,101180.57
2018-06-13T17:39:48.412Z,101174.58
2018-06-13T17:42:16.261Z,101178.44
2018-06-13T17:44:44.477Z,101178.25
2018-06-13T17:47:12.250Z,101177.34
2018-06-13T17:49:39.935Z,101185.73
2018-06-13T17:52:07.950Z,101187.17
2018-06-13T17:54:35.538Z,101186.52
2018-06-13T17:57:03.445Z,101182.92
2018-06-13T17:59:31.284Z,101189.30
2018-06-13T18:01:58.899Z,101188.28
2018-06-13T18:04:26.733Z,101183.59
2018-06-13T18:06:54.415Z,101182.97
2018-06-13T18:09:22.012Z,101187.02
2018-06-13T18:11:49.696Z,101186.97
2018-06-13T18:14:17.497Z,101184.23
2018-06-13T18:16:45.169Z,101183.68
2018-06-13T18:19:12.846Z,101181.41
2018-06-13T18:21:40.682Z,101189.67
2018-06-13T18:24:08.310Z,101200.31
2018-06-13T18:26:36.069Z,101197.94
2018-06-13T18:29:04.004Z,101206.70
2018-06-13T18:31:31.624Z,101201.64
2018-06-13T18:33:59.328Z,101201.65
2018-06-13T18:36:27.067Z,101205.31
2018-06-13T18:38:54.649Z,101206.75
2018-06-13T18:41:22.413Z,101207.33
2018-06-13T18:43:50.281Z,101212.98
2018-06-13T18:46:17.896Z,101209.84
2018-06-13T18:48:45.556Z,101217.91
2018-06-13T18:51:13.305Z,101220.11
2018-06-13T18:53:40.943Z,101215.92
2018-06-13T18:56:08.543Z,101222.82
2018-06-13T18:58:36.454Z,101216.78
2018-06-13T19:01:04.098Z,101221.31
2018-06-13T19:03:31.708Z,101229.23
2018-06-13T19:05:59.480Z,101238.34
2018-06-13T19:08:27.111Z,101234.02
2018-06-13T19:11:09.931Z,101234.70
2018-06-13T19:13:37.520Z,101234.41
2018-06-13T19:16:05.138Z,101243.03
2018-06-13T19:18:33.098Z,101213.73
2018-06-13T19:21:00.715Z,101242.93
2018-06-13T19:23:28.373Z,101242.34
2018-06-13T19:25:56.321Z,101242.16
2018-06-13T19:28:23.962Z,101245.88
2018-06-13T19:30:51.579Z,101250.17
2018-06-13T19:33:19.604Z,101249.52
2018-06-13T19:35:47.184Z,101251.05
2018-06-13T19:38:14.787Z,101251.70
2018-06-13T19:40:42.657Z,101244.92
2018-06-13T19:43:15.985Z,101254.47
2018-06-13T19:45:44.002Z,101254.66
2018-06-13T19:48:17.190Z,101257.02
2018-06-13T19:50:45.052Z,101257.30
2018-06-13T19:53:18.205Z,101257.95
2018-06-13T19:55:51.560Z,101259.10
2018-06-13T19:58:19.194Z,101253.12
2018-06-13T20:00:47.074Z,101250.16
2018-06-13T20:03:20.189Z,101254.82
2018-06-13T20:05:48.013Z,101257.68
2018-06-13T20:08:15.635Z,101262.38
2018-06-13T20:10:46.081Z,101263.95
2018-06-13T20:13:19.499Z,101271.78
2018-06-13T20:15:52.767Z,101271.17
2018-06-13T20:18:26.165Z,101269.64
2018-06-13T20:20:53.885Z,101275.26
2018-06-13T20:23:21.648Z,101270.47
2018-06-13T20:25:54.887Z,101277.41
2018-06-13T20:28:28.083Z,101286.17
2018-06-13T20:31:01.267Z,101283.01
2018-06-13T20:33:29.121Z,101285.53
2018-06-13T20:35:56.756Z,101279.61
2018-06-13T20:38:24.457Z,101283.30
2018-06-13T20:40:52.166Z,101282.30
2018-06-13T20:43:19.908Z,101286.90
2018-06-13T20:45:47.578Z,101287.63
2018-06-13T20:48:15.456Z,101290.05
2018-06-13T20:50:43.072Z,101289.93
2018-06-13T20:53:10.702Z,101293.32
2018-06-13T20:55:38.474Z,101285.56
2018-06-13T20:58:06.080Z,101285.05
2018-06-13T21:00:33.794Z,101285.77
2018-06-13T21:03:01.875Z,101294.12
2018-06-13T21:05:29.475Z,101295.38
2018-06-13T21:07:57.147Z,101286.77
2018-06-13T21:10:25.034Z,101291.48
2018-06-13T21:12:52.665Z,101298.00
2018-06-13T21:15:20.338Z,101292.87
2018-06-13T21:17:48.272Z,101302.08
2018-06-13T21:20:15.951Z,101295.64
2018-06-13T21:22:43.661Z,101287.50
2018-06-13T21:25:11.508Z,101291.67
2018-06-13T21:27:39.120Z,101295.91
2018-06-13T21:30:06.796Z,101273.70
2018-06-13T21:32:34.698Z,101291.27
2018-06-13T21:35:02.500Z,101289.70
2018-06-13T21:37:30.163Z,101298.41
2018-06-13T21:39:58.065Z,101299.44
2018-06-13T21:42:25.707Z,101295.67
2018-06-13T21:44:53.515Z,101296.78
2018-06-13T21:47:21.331Z,101297.55
2018-06-13T21:49:48.898Z,101297.86
2018-06-13T21:52:16.530Z,101298.55
2018-06-13T21:54:44.480Z,101290.70
2018-06-13T21:57:12.094Z,101289.60
2018-06-13T21:59:39.769Z,101287.63
2018-06-13T22:02:07.609Z,101302.44
2018-06-13T22:04:35.463Z,101304.00
2018-06-13T22:07:03.120Z,101302.44
2018-06-13T22:09:31.053Z,101310.16
2018-06-13T22:11:58.662Z,101314.00
2018-06-13T22:14:26.472Z,101316.44
2018-06-13T22:16:54.585Z,101311.71
2018-06-13T22:19:22.936Z,101313.64
2018-06-13T22:21:50.621Z,101311.20
2018-06-13T22:24:18.688Z,101307.05
2018-06-13T22:26:46.303Z,101304.60
2018-06-13T22:29:29.171Z,101305.80
2018-06-13T22:31:56.783Z,101306.52
2018-06-13T22:34:24.501Z,101305.82
2018-06-13T22:36:52.416Z,101308.24
2018-06-13T22:39:19.995Z,101313.78
2018-06-13T22:41:47.659Z,101309.97
2018-06-13T22:44:15.507Z,101258.81
2018-06-13T22:46:43.262Z,101305.94
2018-06-13T22:49:10.968Z,101315.02
2018-06-13T22:51:38.777Z,101316.07
2018-06-13T22:54:06.416Z,101311.37
2018-06-13T22:56:34.052Z,101305.84
2018-06-13T22:59:02.176Z,101306.05
2018-06-13T23:01:29.856Z,101299.22
2018-06-13T23:03:57.480Z,101305.06
2018-06-13T23:06:25.781Z,101299.00
2018-06-13T23:08:53.464Z,101295.22
2018-06-13T23:11:21.061Z,101299.90
2018-06-13T23:13:49.828Z,101298.28
2018-06-13T23:16:17.507Z,101299.82
2018-06-13T23:18:45.135Z,101301.28
2018-06-13T23:21:13.068Z,101303.20
2018-06-13T23:23:40.782Z,101280.76
2018-06-13T23:26:08.424Z,101304.87
2018-06-13T23:28:36.612Z,101306.33
2018-06-13T23:31:04.244Z,101314.05
2018-06-13T23:33:31.843Z,101307.60
2018-06-13T23:35:59.815Z,101302.41
2018-06-13T23:38:27.642Z,101312.31
2018-06-13T23:40:55.217Z,101312.44
2018-06-13T23:43:24.597Z,101310.42
2018-06-13T23:45:52.207Z,101315.88
2018-06-13T23:48:19.829Z,101321.87
2018-06-13T23:50:47.843Z,101319.79
2018-06-13T23:53:15.449Z,101322.13
2018-06-13T23:55:43.187Z,101320.50
2018-06-13T23:58:11.159Z,101321.95
